KOWX

Putnam County Airport

Ottawa, Ohio, USA
METAR KOWX 181335Z AUTO 00000KT 10SM CLR M06/M07 A3029 RMK AO1
Observed Flight Rules
Dec-18 @ 13:35 UTC (31 minutes ago) Visual Flight Rules
Visibility Clouds
10 miles
  • Clear skies
Temperatures Readings
Current -6°C / 21°F
Dewpoint -7°C / 19°F
Humidity 93%
Altimeter 30.29" Hg
Pressure 1026 hPa
Elevation 233
METAR KOWX 181335Z AUTO 00000KT 10SM CLR M06/M07 A3029 RMK AO1
Observed Flight Rules
Dec-18 @ 13:35 UTC
(31 minutes ago)
VFR
Clouds
  • Clear skies
Temperature Dewpoint
-6°C / 21°F -7°C / 19°F
Humidity Altimeter Pressure
93% 30.29" Hg 1026 hPa